CheckWX is a tool to help pilots better visualize weather data.  It is not intended as a substitute for an official pre-flight weather briefing.

04:47:13 UTC

LFMO TAF
Orange-Caritat (BA 115) Air Base Airport
Orange/Caritat, France
TAF LFMO 180200Z 1803/1903 VRB02KT 7000 NSC PROB30 TEMPO 1803/1806 0800 FG NSC BECMG 1809/1811 20010KT PROB30 TEMPO 1823/1903 -RA SCT008 OVC140

Aug-18@
03:00 UTC

Aug-18 @ 03:00 UTC

Aug-18@
09:00 UTC

Aug-18 @ 09:00 UTC

TAF LFMO 180200Z 1803/1903 VRB02KT 7000 NSC
Wind
  • Variable at 2 KTS
Cloud Levels
  • No significant clouds

Aug-18@
03:00 UTC

Aug-18 @ 03:00 UTC

Aug-18@
06:00 UTC

Aug-18 @ 06:00 UTC

PROB30 TEMPO 1803/1806 0800 FG NSC

Temporary - 30% Likelihood

Temporary - 30% Likelihood during this time.

Conditions
Fog
Cloud Levels
  • No significant clouds

Aug-18@
09:00 UTC

Aug-18 @ 09:00 UTC

Aug-19@
03:00 UTC

Aug-19 @ 03:00 UTC

BECMG 1809/1811 20010KT

Becoming

Becoming Conditions expected by Sun, Aug 18, 2019 @ 11:00 UTC

Wind
  • 200° at 10 KTS
Cloud Levels
  • No significant clouds

Aug-18@
23:00 UTC

Aug-18 @ 23:00 UTC

Aug-19@
03:00 UTC

Aug-19 @ 03:00 UTC

PROB30 TEMPO 1823/1903 -RA SCT008 OVC140

Temporary - 30% Likelihood

Temporary - 30% Likelihood during this time.

Conditions
Light Rain
Cloud Levels
  • Scattered at 800' AGL
  • Overcast at 14,000' AGL